Pasadena 2N

39° 08' 31"N, 76° 30' 27"W, Elevation 43 ft.
Eastern Time

Hourly observations for the last 72 hours

Date Time Temperature (°F) Humi-
dity

(%)
Wind
(mph)
Pressure Rain (in) Sun
(W/m2)
ET
(in)
Air Dew 6 Hour 1 Hr 3 Hr 6 Hr Day
Alt
(in)
Sea
Level

(mb)
Max Min
12 13:00 45.7 28.6 46.3 29.3 51 WNW 3 G 9 30.14 1020.8 0.00 244 0.011
12 12:00 44.6 27.6 51 WSW 1 G 7 30.17 1021.7 0.00 371 0.007
12 11:00 42.0 27.0 55 WSW 2 G 5 30.20 1022.7 0.00 135 0.005
12 10:00 40.4 27.6 60 W 4 G 9 30.21 1023.1 0.00 54 0.004
12 09:00 32.1 25.7 77 W 1 G 4 30.20 1022.7 0.00 39 0.003
12 08:00 29.3 23.3 78 Calm 30.17 1021.9 0.00 21 0.003
12 07:00 32.6 24.6 34.4 30.1 72 W 0 G 2 30.15 1021.1 0.00 0 0.002
12 06:00 34.3 25.9 71 W 1 G 2 30.13 1020.4 0.00 0 0.001
12 05:00 33.5 24.8 70 W 1 G 3 30.11 1019.6 0.00 0 0.000
12 04:00 32.1 24.1 72 W 1 G 3 30.08 1018.7 0.00 0 0.000
12 03:00 31.5 25.4 78 W 0 G 2 30.07 1018.3 0.00 0 0.000
12 02:00 31.2 24.8 77 W 0 G 2 30.06 1017.8 0.00 0 0.000
12 01:00 30.1 24.4 30.1 27.4 79 W 1 G 2 30.05 1017.6 0.00 0 0.000
12 00:00 28.3 23.5 82 W 1 G 2 30.06 1017.8 0.00 0 0.029
11 23:00 28.8 22.8 78 W 2 G 7 30.04 1017.3 0.00 0 0.029
11 22:00 27.8 22.4 80 W 1 G 4 30.02 1016.8 0.00 0 0.029
11 21:00 28.7 22.1 76 W 0 G 2 30.01 1016.4 0.00 0 0.029
11 20:00 29.3 21.7 73 S 1 G 3 30.00 1016.0 0.00 0 0.028
11 19:00 28.3 20.4 44.2 28.2 72 S 2 G 3 30.01 1016.2 0.00 0 0.027
11 18:00 30.4 20.0 65 WNW 1 G 2 30.00 1016.1 0.00 0 0.026
11 17:00 35.7 19.8 52 WNW 0 G 2 30.00 1015.9 0.00 0 0.025
11 16:00 41.8 20.9 43 W 2 G 7 30.00 1016.1 0.00 19 0.023
11 15:00 42.4 21.5 43 W 2 G 8 30.01 1016.3 0.00 26 0.021
11 14:00 43.9 21.1 40 WNW 5 G 11 30.02 1016.6 0.00 348 0.013
11 13:00 42.8 22.4 43.2 19.9 44 WNW 3 G 8 30.05 1017.8 0.00 429 0.005
11 12:00 40.8 25.0 53 WNW 1 G 6 30.10 1019.3 0.00 427 0.001
11 11:00 35.4 25.9 68 SSW 1 G 4 30.14 1020.6 0.00 37 0.000
11 10:00 31.5 26.6 82 WNW 1 G 3 30.17 1021.5 0.00 33 0.000
11 09:00 24.0 21.8 91 W 0 G 1 30.17 1021.5 0.00 26 0.000
11 08:00 20.4 17.9 90 Calm 30.16 1021.4 0.00 14 0.000
11 07:00 20.2 17.7 23.6 20.1 90 Calm 30.17 1021.6 0.00 0 0.000
11 06:00 20.4 17.9 90 Calm 30.17 1021.7 0.00 0 0.000
11 05:00 20.7 18.2 90 Calm 30.16 1021.4 0.00 0 0.000
11 04:00 21.2 18.7 90 Calm 30.17 1021.6 0.00 0 0.000
11 03:00 21.8 19.1 89 Calm 30.18 1022.2 0.00 0 0.000
11 02:00 22.6 19.6 88 Calm 30.18 1022.2 0.00 0 0.000
11 01:00 23.6 20.6 29.1 23.6 88 Calm 30.18 1021.9 0.00 0 0.000
11 00:00 24.3 21.0 87 W 0 G 2 30.18 1022.1 0.00 0 0.027
10 23:00 24.5 21.2 87 Calm 30.18 1022.2 0.00 0 0.027
10 22:00 25.6 22.3 87 Calm 30.18 1022.2 0.00 0 0.027
10 21:00 26.0 22.1 85 W 0 G 1 30.18 1022.2 0.00 0 0.027
10 20:00 27.4 23.2 84 W 1 G 2 30.18 1022.0 0.00 0 0.027
10 19:00 29.1 23.7 39.4 29.1 80 NNE 0 G 2 30.16 1021.4 0.00 0 0.027
10 18:00 33.2 25.2 72 NNE 1 G 4 30.15 1021.0 0.00 0 0.026
10 17:00 34.7 25.9 70 NNW 2 G 8 30.14 1020.6 0.00 0 0.025
10 16:00 36.7 26.8 67 N 1 G 8 30.13 1020.2 0.00 28 0.024
10 15:00 37.9 26.4 63 N 2 G 6 30.11 1019.8 0.00 63 0.022
10 14:00 39.3 26.6 60 NNW 3 G 6 30.12 1019.9 0.00 244 0.018
10 13:00 37.1 25.7 37.1 28.9 63 NW 1 G 6 30.13 1020.2 0.00 155 0.015
10 12:00 36.1 25.5 65 NE 2 G 7 30.15 1020.9 0.00 214 0.012
10 11:00 34.3 24.1 66 NNE 3 G 7 30.18 1022.0 0.00 95 0.010
10 10:00 31.8 22.8 69 NNW 3 G 10 30.18 1021.9 0.00 54 0.009
10 09:00 30.0 21.7 71 N 5 G 9 30.16 1021.2 0.00 53 0.008
10 08:00 29.0 20.4 70 N 3 G 8 30.14 1020.8 0.00 16 0.007
10 07:00 29.4 20.5 31.0 29.2 69 NNW 2 G 8 30.13 1020.2 0.00 0 0.006
10 06:00 29.4 20.1 68 NNE 1 G 5 30.11 1019.6 0.00 0 0.005
10 05:00 30.3 20.3 66 NNW 3 G 6 30.08 1018.7 0.00 0 0.004
10 04:00 30.5 20.1 65 NNW 3 G 9 30.08 1018.7 0.00 0 0.003
10 03:00 30.5 19.8 64 NNW 3 G 9 30.09 1019.0 0.00 0 0.002
10 02:00 30.8 20.4 65 NNW 1 G 7 30.09 1018.9 0.00 0 0.001
10 01:00 31.0 21.0 32.6 30.9 66 NW 3 G 8 30.10 1019.2 0.00 0 0.000
10 00:00 31.4 20.6 64 NNW 3 G 7 30.12 1019.9 0.00 0 0.021
9 23:00 31.5 21.1 65 NNW 2 G 6 30.14 1020.6 0.00 0 0.020
9 22:00 32.0 21.9 66 N 2 G 5 30.16 1021.3 0.00 0 0.019
9 21:00 32.3 22.2 66 NNE 4 G 10 30.18 1022.1 0.00 0 0.018
9 20:00 32.5 22.4 66 N 3 G 9 30.20 1022.8 0.00 0 0.017
9 19:00 32.5 21.7 32.9 32.2 64 N 4 G 8 30.22 1023.4 0.00 0 0.016
9 18:00 32.8 22.0 64 NE 2 G 8 30.26 1024.8 0.00 0 0.015
9 17:00 32.7 21.9 64 N 2 G 7 30.27 1025.0 0.00 0 0.014
9 16:00 32.7 22.2 65 NE 2 G 6 30.27 1025.2 0.00 7 0.013
9 15:00 32.7 22.2 65 NNW 2 G 7 30.28 1025.4 0.00 25 0.012
9 14:00 32.4 22.0 65 NNE 3 G 6 30.32 1026.7 0.00 49 0.011

Data generated by WxSolution Version 1.9.1.6, Build 2018.07.01.